Moondance — DHGU2 — position and weather

sailwx.info

Track history (hours):
 
Tides and Currents Weather Stations Pressure Air Temp Water Temp Dewpoint Dewpoint Depression Visibility Wind Speed Wind Dir Waves Ship Positions

Moondance

Last reported at 2017-Oct-30 07:05 UTC. Time now 2017-Dec-12 14:14 UTC.
Position N 38°02' W 000°36'.
Warning: this ship's position is 43 days out of date.

Length 12 m.

Type: Sailing vessel. MMSI: 211632320.

Date/timePositionNaut miles runAvg speedWind from/ knotsBaromVisibWave heightAir tempDewpointWater temp
2017-Oct-30 07:05N 38°02' W 000°36'1 7.7
2017-Oct-30 06:55N 38°01' W 000°37'3 7.6
2017-Oct-30 06:30N 37°58' W 000°40'1 1.2
2017-Oct-30 05:55N 37°58' W 000°41'0 0.0
2017-Oct-28 17:03N 37°58' W 000°41'0 0.0
2017-Oct-28 17:00N 37°58' W 000°41'0 0.0
2017-Oct-28 16:30N 37°58' W 000°41'0 0.0
2017-Oct-28 16:00N 37°58' W 000°41'0 0.0
2017-Oct-28 15:30N 37°58' W 000°41'0 0.0
2017-Oct-28 15:00N 37°58' W 000°41'0 0.9
2017-Oct-28 14:30N 37°58' W 000°41'54 2.7
2017-Oct-27 18:30N 38°38' E 000°04'0 0.0
2017-Oct-27 17:54N 38°38' E 000°04'0 0.0
2017-Oct-27 17:24N 38°38' E 000°04'0 0.0
2017-Oct-27 17:00N 38°38' E 000°04'0 0.0
2017-Oct-27 16:26N 38°38' E 000°04'2 3.0
2017-Oct-27 15:46N 38°38' E 000°07'2 6.3
2017-Oct-27 15:23N 38°38' E 000°10'2 5.6
2017-Oct-27 15:00N 38°38' E 000°13'3 6.4
2017-Oct-27 14:30N 38°39' E 000°17'  
Track history (hours):
 
Tides and Currents Weather Stations Pressure Air Temp Water Temp Dewpoint Dewpoint Depression Visibility Wind Speed Wind Dir Waves Ship Positions

Moondance

Last reported at 2017-Oct-30 07:05 UTC. Time now 2017-Dec-12 14:14 UTC.
Position N 38°02' W 000°36'.
Warning: this ship's position is 43 days out of date.

Length 12 m.

Type: Sailing vessel. MMSI: 211632320.

Date/timePositionNaut miles runAvg speedWind from/ knotsBaromVisibWave heightAir tempDewpointWater temp
2017-Oct-30 07:05N 38°02' W 000°36'1 7.7
2017-Oct-30 06:55N 38°01' W 000°37'3 7.6
2017-Oct-30 06:30N 37°58' W 000°40'1 1.2
2017-Oct-30 05:55N 37°58' W 000°41'0 0.0
2017-Oct-28 17:03N 37°58' W 000°41'0 0.0
2017-Oct-28 17:00N 37°58' W 000°41'0 0.0
2017-Oct-28 16:30N 37°58' W 000°41'0 0.0
2017-Oct-28 16:00N 37°58' W 000°41'0 0.0
2017-Oct-28 15:30N 37°58' W 000°41'0 0.0
2017-Oct-28 15:00N 37°58' W 000°41'0 0.9
2017-Oct-28 14:30N 37°58' W 000°41'54 2.7
2017-Oct-27 18:30N 38°38' E 000°04'0 0.0
2017-Oct-27 17:54N 38°38' E 000°04'0 0.0
2017-Oct-27 17:24N 38°38' E 000°04'0 0.0
2017-Oct-27 17:00N 38°38' E 000°04'0 0.0
2017-Oct-27 16:26N 38°38' E 000°04'2 3.0
2017-Oct-27 15:46N 38°38' E 000°07'2 6.3
2017-Oct-27 15:23N 38°38' E 000°10'2 5.6
2017-Oct-27 15:00N 38°38' E 000°13'3 6.4
2017-Oct-27 14:30N 38°39' E 000°17'  

Dump ship's entire track history